Time;durP1;ratioP1;P1;durP2;ratioP2;P2;SDS_P1;SDS_P2;PMS_P1;PMS_P2;Temp;Humidity;BMP_temperature;BMP_pressure;BME280_temperature;BME280_humidity;BME280_pressure;Samples;Min_cycle;Max_cycle;Signal;HPM_P1;HPM_P2
2021/05/08 00:00:22;;;;;;;12.97;10.77;;;2.90;99.90;;;;;;5113688;28;20512;-73
2021/05/08 00:02:49;;;;;;;14.33;11.03;;;2.90;99.90;;;;;;5113646;28;20441;-68
2021/05/08 00:05:16;;;;;;;12.33;10.23;;;3.00;99.90;;;;;;5112452;28;20465;-68
2021/05/08 00:07:42;;;;;;;12.07;10.17;;;3.00;99.90;;;;;;5113490;28;20561;-67
2021/05/08 00:10:10;;;;;;;10.90;9.80;;;3.00;99.90;;;;;;5113685;28;20445;-67
2021/05/08 00:12:37;;;;;;;12.20;9.57;;;3.00;99.90;;;;;;5113160;28;20449;-68
2021/05/08 00:15:06;;;;;;;11.40;10.00;;;3.00;99.90;;;;;;5113265;28;20464;-69
2021/05/08 00:17:32;;;;;;;11.40;10.20;;;2.90;99.90;;;;;;5113729;28;20533;-69
2021/05/08 00:19:58;;;;;;;10.90;9.80;;;2.80;99.90;;;;;;5113614;28;20452;-67
2021/05/08 00:22:25;;;;;;;10.70;9.20;;;2.70;99.90;;;;;;5113729;28;20444;-68
2021/05/08 00:24:51;;;;;;;13.70;9.70;;;2.60;99.90;;;;;;5113284;28;20471;-68
2021/05/08 00:27:18;;;;;;;12.27;10.90;;;2.60;99.90;;;;;;5113647;28;20859;-69
2021/05/08 00:29:44;;;;;;;11.93;9.57;;;2.50;99.90;;;;;;5113699;28;20520;-69
2021/05/08 00:32:11;;;;;;;10.80;9.80;;;2.50;99.90;;;;;;5113629;28;20451;-69
2021/05/08 00:34:37;;;;;;;12.13;9.80;;;2.40;99.90;;;;;;5113072;28;20491;-69
2021/05/08 00:37:04;;;;;;;12.13;10.10;;;2.40;99.90;;;;;;5113490;28;20496;-69
2021/05/08 00:39:30;;;;;;;12.73;10.03;;;2.50;99.90;;;;;;5113623;28;20473;-68
2021/05/08 00:41:57;;;;;;;10.90;9.37;;;2.50;99.90;;;;;;5113237;28;20532;-69
2021/05/08 00:44:24;;;;;;;12.37;10.03;;;2.40;99.90;;;;;;5112835;28;20465;-69
2021/05/08 00:46:51;;;;;;;11.20;10.03;;;2.30;99.90;;;;;;5113104;28;20465;-68
2021/05/08 00:49:19;;;;;;;11.13;9.50;;;2.30;99.90;;;;;;5112813;28;20475;-68
2021/05/08 00:51:46;;;;;;;10.73;9.63;;;2.20;99.90;;;;;;5112937;27;20516;-68
2021/05/08 00:54:12;;;;;;;11.87;9.33;;;2.20;99.90;;;;;;5112867;28;20521;-69
2021/05/08 00:56:39;;;;;;;11.20;10.17;;;2.10;99.90;;;;;;5112896;28;20626;-69
2021/05/08 00:59:05;;;;;;;11.10;9.37;;;2.10;99.90;;;;;;5112241;28;20540;-69
2021/05/08 01:01:32;;;;;;;11.77;10.53;;;2.10;99.90;;;;;;5112988;28;20441;-67
2021/05/08 01:03:58;;;;;;;14.30;11.67;;;2.10;99.90;;;;;;5112441;28;20557;-68
2021/05/08 01:06:25;;;;;;;11.37;10.17;;;2.10;99.90;;;;;;5112871;28;20523;-69
2021/05/08 01:08:52;;;;;;;13.27;11.30;;;2.10;99.90;;;;;;5112622;28;20963;-67
2021/05/08 01:11:18;;;;;;;13.03;9.90;;;2.10;99.90;;;;;;5112764;28;20525;-67
2021/05/08 01:13:45;;;;;;;13.13;10.43;;;2.20;99.90;;;;;;5112655;28;21021;-68
2021/05/08 01:16:11;;;;;;;12.83;9.97;;;2.30;99.90;;;;;;5111929;28;20478;-68
2021/05/08 01:18:37;;;;;;;12.87;11.10;;;2.30;99.90;;;;;;5112632;28;20445;-67
2021/05/08 01:21:09;;;;;;;12.63;11.20;;;2.20;99.90;;;;;;5112788;28;20481;-68
2021/05/08 01:23:35;;;;;;;12.20;10.40;;;2.10;99.90;;;;;;5112487;28;20461;-67
2021/05/08 01:26:02;;;;;;;13.00;10.63;;;2.10;99.90;;;;;;5112302;28;20437;-68
2021/05/08 01:28:28;;;;;;;11.30;10.20;;;2.10;99.90;;;;;;5112144;28;20524;-67
2021/05/08 01:30:55;;;;;;;11.57;10.13;;;2.10;99.90;;;;;;5112206;28;20446;-68
2021/05/08 01:33:21;;;;;;;13.73;10.60;;;2.00;99.90;;;;;;5112740;28;20448;-67
2021/05/08 01:35:47;;;;;;;12.83;10.80;;;2.00;99.90;;;;;;5112428;28;20516;-67
2021/05/08 01:38:15;;;;;;;9.77;8.77;;;2.00;99.90;;;;;;5112457;28;20935;-67
2021/05/08 01:40:42;;;;;;;12.90;11.53;;;2.00;99.90;;;;;;5112579;28;20538;-68
2021/05/08 01:43:08;;;;;;;11.77;10.50;;;2.00;99.90;;;;;;5112009;28;20451;-68
2021/05/08 01:45:35;;;;;;;12.63;10.63;;;2.00;99.90;;;;;;5111787;28;20486;-68
2021/05/08 01:48:04;;;;;;;12.27;11.00;;;2.10;99.90;;;;;;5112181;28;20467;-67
2021/05/08 01:50:31;;;;;;;15.10;12.40;;;2.20;99.90;;;;;;5112078;28;20453;-68
2021/05/08 01:52:57;;;;;;;14.57;11.80;;;2.20;99.90;;;;;;5111867;28;20860;-67
2021/05/08 01:55:26;;;;;;;12.50;10.50;;;2.30;99.90;;;;;;5111648;28;21040;-67
2021/05/08 01:57:53;;;;;;;14.43;10.60;;;2.30;99.90;;;;;;5111695;28;20450;-68
2021/05/08 02:00:22;;;;;;;14.47;11.27;;;2.20;99.90;;;;;;5112247;28;20441;-69
2021/05/08 02:02:50;;;;;;;12.47;10.73;;;2.20;99.90;;;;;;5111903;28;20536;-68
2021/05/08 02:05:17;;;;;;;12.13;10.80;;;2.10;99.90;;;;;;5111538;28;20461;-68
2021/05/08 02:07:43;;;;;;;14.00;11.00;;;2.10;99.90;;;;;;5112318;28;20441;-68
2021/05/08 02:10:11;;;;;;;12.93;10.43;;;2.00;99.90;;;;;;5110570;28;20487;-68
2021/05/08 02:12:39;;;;;;;15.20;10.50;;;2.00;99.90;;;;;;5111591;28;20445;-67
2021/05/08 02:15:07;;;;;;;12.17;9.73;;;1.90;99.90;;;;;;5111259;27;20464;-68
2021/05/08 02:17:33;;;;;;;10.33;9.33;;;1.90;99.90;;;;;;5111507;28;21054;-67
2021/05/08 02:19:59;;;;;;;11.00;9.90;;;1.90;99.90;;;;;;5113718;28;20931;-68
2021/05/08 02:22:26;;;;;;;11.70;10.20;;;1.90;99.90;;;;;;5112151;28;20564;-67
2021/05/08 02:24:52;;;;;;;16.13;10.60;;;1.90;99.90;;;;;;5111169;28;20552;-68
2021/05/08 02:27:19;;;;;;;10.90;9.67;;;1.90;99.90;;;;;;5111601;28;20443;-67
2021/05/08 02:29:46;;;;;;;11.10;9.90;;;1.90;99.90;;;;;;5111514;28;20457;-68
2021/05/08 02:32:12;;;;;;;11.93;10.67;;;1.90;99.90;;;;;;5111366;28;20818;-68
2021/05/08 02:34:39;;;;;;;11.23;9.67;;;1.90;99.90;;;;;;5110696;28;20469;-67
2021/05/08 02:37:05;;;;;;;14.87;10.27;;;1.80;99.90;;;;;;5111012;28;20905;-67
2021/05/08 02:39:31;;;;;;;10.30;8.77;;;1.90;99.90;;;;;;5111356;28;20907;-67
2021/05/08 02:41:58;;;;;;;10.90;9.80;;;1.80;99.90;;;;;;5111123;28;20445;-67
2021/05/08 02:44:24;;;;;;;12.10;9.20;;;1.80;99.90;;;;;;5110873;28;20501;-68
2021/05/08 02:46:51;;;;;;;11.67;9.60;;;1.80;99.90;;;;;;5111237;28;20452;-67
2021/05/08 02:49:18;;;;;;;13.13;9.43;;;1.70;99.90;;;;;;5111374;28;20524;-68
2021/05/08 02:51:44;;;;;;;12.33;9.77;;;1.70;99.90;;;;;;5111562;28;21002;-69
2021/05/08 02:54:10;;;;;;;13.17;10.37;;;1.70;99.90;;;;;;5111782;28;20773;-68
2021/05/08 02:56:37;;;;;;;11.23;9.80;;;1.80;99.90;;;;;;5111191;28;20524;-67
2021/05/08 02:59:03;;;;;;;11.50;10.00;;;1.80;99.90;;;;;;5111214;28;20437;-68
2021/05/08 03:01:30;;;;;;;12.20;9.63;;;1.80;99.90;;;;;;5110709;28;20509;-69
2021/05/08 03:03:57;;;;;;;12.40;10.00;;;1.90;99.90;;;;;;5110166;28;20544;-68
2021/05/08 03:06:23;;;;;;;12.33;10.77;;;1.80;99.90;;;;;;5110523;28;20923;-69
2021/05/08 03:08:49;;;;;;;11.67;9.77;;;1.80;99.90;;;;;;5110358;28;20449;-69
2021/05/08 03:11:16;;;;;;;11.83;10.40;;;1.80;99.90;;;;;;5110521;28;20560;-69
2021/05/08 03:13:42;;;;;;;14.53;11.60;;;1.80;99.90;;;;;;5110453;28;20544;-68
2021/05/08 03:16:08;;;;;;;14.93;12.23;;;1.80;99.90;;;;;;5110050;28;20473;-68
2021/05/08 03:18:35;;;;;;;14.00;11.70;;;1.70;99.90;;;;;;5110186;28;20444;-69
2021/05/08 03:21:02;;;;;;;15.43;11.20;;;1.70;99.90;;;;;;5112089;28;20536;-68
2021/05/08 03:23:28;;;;;;;13.40;10.40;;;1.70;99.90;;;;;;5114519;28;20472;-68
2021/05/08 03:25:55;;;;;;;14.20;11.20;;;1.70;99.90;;;;;;5114424;28;20826;-69
2021/05/08 03:28:21;;;;;;;12.30;10.43;;;1.70;99.90;;;;;;5114426;28;20445;-68
2021/05/08 03:30:47;;;;;;;13.60;11.30;;;1.70;99.90;;;;;;5114916;28;20892;-69
2021/05/08 03:33:14;;;;;;;14.53;10.33;;;1.70;99.90;;;;;;5114556;28;20464;-67
2021/05/08 03:35:40;;;;;;;12.67;11.00;;;1.70;99.90;;;;;;5113983;28;20841;-68
2021/05/08 03:38:08;;;;;;;17.83;12.10;;;1.80;99.90;;;;;;5114215;28;20445;-69
2021/05/08 03:40:34;;;;;;;14.90;11.10;;;1.90;99.90;;;;;;5114329;28;20535;-69
2021/05/08 03:43:01;;;;;;;12.07;10.00;;;1.90;99.90;;;;;;5114137;28;20477;-68
2021/05/08 03:45:27;;;;;;;13.37;10.53;;;1.80;99.90;;;;;;5113845;28;20465;-68
2021/05/08 03:47:54;;;;;;;15.10;11.50;;;1.90;99.90;;;;;;5114151;28;20513;-69
2021/05/08 03:50:20;;;;;;;14.77;10.83;;;1.90;99.90;;;;;;5113902;28;20505;-69
2021/05/08 03:52:47;;;;;;;13.03;10.10;;;1.90;99.90;;;;;;5114045;28;20876;-68
2021/05/08 03:55:14;;;;;;;12.83;10.80;;;1.90;99.90;;;;;;5113345;28;21031;-68
2021/05/08 03:57:40;;;;;;;11.50;9.97;;;1.90;99.90;;;;;;5113969;28;20568;-69
2021/05/08 04:00:07;;;;;;;11.83;9.90;;;1.90;99.90;;;;;;5113771;28;20445;-68
2021/05/08 04:02:34;;;;;;;14.20;11.17;;;1.90;99.90;;;;;;5113655;28;20441;-68
2021/05/08 04:05:00;;;;;;;10.87;9.40;;;1.90;99.90;;;;;;5113559;28;20461;-69
2021/05/08 04:07:26;;;;;;;12.47;10.67;;;1.90;99.90;;;;;;5113731;28;21010;-68
2021/05/08 04:09:52;;;;;;;12.10;10.40;;;2.00;99.90;;;;;;5114062;28;20540;-69
2021/05/08 04:12:20;;;;;;;10.33;9.27;;;2.00;99.90;;;;;;5113900;28;20526;-67
2021/05/08 04:14:46;;;;;;;10.33;8.10;;;2.00;99.90;;;;;;5113623;28;20555;-68
2021/05/08 04:17:12;;;;;;;10.63;8.80;;;2.10;99.90;;;;;;5113816;28;20481;-68
2021/05/08 04:19:39;;;;;;;14.90;9.70;;;2.10;99.90;;;;;;5114594;28;20808;-69
2021/05/08 04:22:05;;;;;;;11.53;10.33;;;2.10;99.90;;;;;;5113736;28;20973;-68
2021/05/08 04:24:31;;;;;;;11.37;9.70;;;2.10;99.90;;;;;;5113295;28;20465;-67
2021/05/08 04:26:58;;;;;;;18.53;9.97;;;2.20;99.90;;;;;;5113323;28;20957;-68
2021/05/08 04:29:25;;;;;;;11.97;9.20;;;2.20;99.90;;;;;;5113243;28;20980;-68
2021/05/08 04:31:51;;;;;;;10.07;9.03;;;2.30;99.90;;;;;;5112488;28;20578;-69
2021/05/08 04:34:17;;;;;;;12.57;8.47;;;2.30;99.90;;;;;;5112248;28;20459;-68
2021/05/08 04:36:44;;;;;;;10.13;8.60;;;2.30;99.90;;;;;;5113202;28;20503;-68
2021/05/08 04:39:10;;;;;;;12.87;9.30;;;2.40;99.90;;;;;;5113230;28;20818;-68
2021/05/08 04:41:36;;;;;;;9.77;8.77;;;2.50;99.90;;;;;;5113173;28;20457;-69
2021/05/08 04:44:03;;;;;;;12.10;9.30;;;2.50;99.90;;;;;;5112597;28;20461;-68
2021/05/08 04:46:30;;;;;;;11.43;9.10;;;2.50;99.90;;;;;;5112956;28;20441;-67
2021/05/08 04:48:57;;;;;;;10.23;9.13;;;2.60;99.90;;;;;;5113655;28;20446;-68
2021/05/08 04:51:23;;;;;;;10.73;8.90;;;2.60;99.90;;;;;;5113022;28;20481;-67
2021/05/08 04:53:50;;;;;;;10.57;8.70;;;2.70;99.90;;;;;;5112786;28;20458;-68
2021/05/08 04:56:16;;;;;;;11.10;9.33;;;2.70;99.90;;;;;;5112897;28;20991;-69
2021/05/08 04:58:43;;;;;;;11.97;8.97;;;2.70;99.90;;;;;;5112927;28;20437;-68
2021/05/08 05:01:10;;;;;;;9.37;8.47;;;2.80;99.90;;;;;;5112799;28;20501;-67
2021/05/08 05:03:37;;;;;;;11.47;9.60;;;2.90;99.90;;;;;;5112669;28;20488;-68
2021/05/08 05:06:03;;;;;;;13.20;10.03;;;2.90;99.90;;;;;;5112517;28;20532;-68
2021/05/08 05:08:30;;;;;;;9.97;8.70;;;3.00;99.90;;;;;;5112663;28;20528;-68
2021/05/08 05:10:56;;;;;;;9.77;8.30;;;3.00;99.90;;;;;;5112856;28;20450;-67
2021/05/08 05:13:24;;;;;;;10.53;9.17;;;3.10;99.90;;;;;;5112731;28;20490;-68
2021/05/08 05:15:50;;;;;;;9.53;8.53;;;3.10;99.90;;;;;;5112068;28;21024;-68
2021/05/08 05:18:17;;;;;;;9.90;8.90;;;3.10;99.90;;;;;;5112584;28;20445;-67
2021/05/08 05:20:45;;;;;;;10.17;8.57;;;3.20;99.90;;;;;;5112667;28;20818;-68
2021/05/08 05:23:12;;;;;;;10.17;8.73;;;3.30;99.90;;;;;;5112405;28;20448;-68
2021/05/08 05:25:39;;;;;;;9.90;8.90;;;3.40;99.90;;;;;;5112125;28;20480;-67
2021/05/08 05:28:19;;;;;;;12.20;9.23;;;3.50;99.90;;;;;;5112472;28;20524;-68
2021/05/08 05:30:45;;;;;;;11.10;9.57;;;3.60;99.90;;;;;;5112505;28;20472;-68
2021/05/08 05:33:12;;;;;;;11.37;10.10;;;3.70;99.90;;;;;;5111957;28;21026;-68
2021/05/08 05:35:38;;;;;;;10.00;9.03;;;3.90;99.90;;;;;;5111913;28;20449;-69
2021/05/08 05:38:05;;;;;;;10.30;8.90;;;4.10;99.90;;;;;;5112064;28;20999;-67
2021/05/08 05:40:33;;;;;;;12.37;9.27;;;4.40;99.90;;;;;;5112135;28;20453;-68
2021/05/08 05:43:00;;;;;;;10.40;8.20;;;4.60;99.90;;;;;;5111767;28;20446;-68
2021/05/08 05:45:26;;;;;;;12.17;9.00;;;4.70;99.90;;;;;;5111512;28;20460;-69
2021/05/08 05:47:56;;;;;;;9.87;8.63;;;4.80;99.90;;;;;;5112109;28;20516;-69
2021/05/08 05:50:24;;;;;;;9.33;8.33;;;4.90;99.90;;;;;;5111781;28;20526;-68
2021/05/08 05:52:52;;;;;;;9.47;8.20;;;4.90;99.90;;;;;;5112061;28;20455;-68
2021/05/08 05:55:20;;;;;;;9.23;8.30;;;5.00;99.90;;;;;;5111335;28;21011;-68
2021/05/08 05:57:47;;;;;;;9.03;7.90;;;5.10;99.90;;;;;;5111786;28;20563;-68
2021/05/08 06:00:14;;;;;;;9.60;8.10;;;5.20;99.90;;;;;;5111540;28;20445;-68
2021/05/08 06:02:41;;;;;;;10.53;7.63;;;5.40;99.90;;;;;;5111476;28;20529;-68
2021/05/08 06:05:08;;;;;;;9.83;8.60;;;5.50;99.90;;;;;;5111246;28;20461;-69
2021/05/08 06:07:34;;;;;;;9.70;7.93;;;5.60;99.90;;;;;;5111094;28;20524;-68
2021/05/08 06:10:01;;;;;;;9.50;8.60;;;5.60;99.90;;;;;;5111115;28;20447;-68
2021/05/08 06:12:29;;;;;;;10.00;8.27;;;5.70;99.90;;;;;;5111281;28;20488;-69
2021/05/08 06:14:55;;;;;;;9.10;8.20;;;5.80;99.90;;;;;;5110820;28;20465;-69
2021/05/08 06:17:21;;;;;;;11.30;8.70;;;5.80;99.90;;;;;;5111139;28;20481;-69
2021/05/08 06:19:48;;;;;;;9.63;8.50;;;5.90;99.90;;;;;;5111012;28;20493;-68
2021/05/08 06:22:14;;;;;;;9.23;7.20;;;6.00;99.90;;;;;;5110958;28;20491;-68
2021/05/08 06:24:41;;;;;;;7.93;7.13;;;6.10;99.90;;;;;;5110478;28;20457;-67
2021/05/08 06:27:07;;;;;;;8.13;7.33;;;6.30;99.90;;;;;;5111175;28;20524;-68
2021/05/08 06:29:36;;;;;;;9.73;7.87;;;6.50;99.90;;;;;;5110773;28;20920;-68
2021/05/08 06:32:02;;;;;;;8.53;7.60;;;6.70;99.90;;;;;;5111033;28;20540;-68
2021/05/08 06:34:29;;;;;;;8.90;7.53;;;6.80;99.90;;;;;;5110309;28;20495;-68
2021/05/08 06:36:58;;;;;;;9.30;8.33;;;6.90;99.90;;;;;;5110681;28;20480;-69
2021/05/08 06:39:24;;;;;;;8.37;7.47;;;7.00;99.90;;;;;;5110759;28;20499;-68
2021/05/08 06:41:51;;;;;;;9.10;7.33;;;7.10;99.90;;;;;;5110924;28;20476;-68
2021/05/08 06:44:18;;;;;;;8.53;7.70;;;7.30;99.90;;;;;;5110333;28;20548;-68
2021/05/08 06:46:45;;;;;;;7.70;6.90;;;7.30;99.90;;;;;;5110759;28;20434;-68
2021/05/08 06:49:11;;;;;;;9.43;7.20;;;7.40;99.90;;;;;;5110594;28;20494;-69
2021/05/08 06:51:38;;;;;;;8.50;7.60;;;7.50;99.90;;;;;;5110503;28;20463;-68
2021/05/08 06:54:05;;;;;;;7.65;6.90;;;7.60;99.90;;;;;;5109912;28;20474;-68
2021/05/08 06:56:31;;;;;;;8.47;7.57;;;7.70;99.90;;;;;;5109991;28;20411;-68
2021/05/08 06:58:58;;;;;;;8.13;6.87;;;7.80;99.90;;;;;;5110406;28;20445;-67
2021/05/08 07:01:24;;;;;;;8.90;7.30;;;8.00;99.90;;;;;;5110543;28;20469;-68
2021/05/08 07:03:51;;;;;;;8.00;6.80;;;8.20;99.90;;;;;;5107031;28;20473;-69
2021/05/08 07:06:18;;;;;;;7.87;6.37;;;8.40;99.90;;;;;;5109654;28;20940;-68
2021/05/08 07:08:44;;;;;;;7.53;6.73;;;8.60;99.90;;;;;;5109906;28;20583;-69
2021/05/08 07:11:10;;;;;;;7.10;6.20;;;8.80;99.90;;;;;;5098530;28;20449;-69
2021/05/08 07:13:36;;;;;;;6.67;6.03;;;9.10;99.90;;;;;;5101399;28;20569;-70
2021/05/08 07:16:03;;;;;;;7.00;5.80;;;9.30;99.90;;;;;;5097928;28;20476;-70
2021/05/08 07:18:29;;;;;;;6.33;5.73;;;9.30;99.90;;;;;;5099772;28;21120;-70
2021/05/08 07:20:57;;;;;;;7.10;6.17;;;9.50;99.90;;;;;;5103792;28;20448;-68
2021/05/08 07:23:23;;;;;;;6.10;5.50;;;9.80;99.90;;;;;;5106017;28;21089;-67
2021/05/08 07:25:49;;;;;;;5.47;4.93;;;10.00;99.90;;;;;;5107912;28;20870;-69
2021/05/08 07:28:17;;;;;;;5.53;4.90;;;10.30;99.90;;;;;;5109633;28;20552;-68
2021/05/08 07:30:45;;;;;;;5.60;4.73;;;10.50;99.90;;;;;;5110222;28;20433;-69
2021/05/08 07:33:12;;;;;;;5.20;4.40;;;10.70;99.90;;;;;;5110169;28;20533;-68
2021/05/08 07:35:39;;;;;;;6.23;4.90;;;10.90;99.90;;;;;;5109580;28;20433;-69
2021/05/08 07:38:07;;;;;;;5.10;4.60;;;11.20;99.90;;;;;;5110194;28;20566;-69
2021/05/08 07:40:34;;;;;;;5.73;5.23;;;11.50;99.90;;;;;;5109626;28;20498;-70
2021/05/08 07:43:02;;;;;;;5.87;4.13;;;11.70;99.90;;;;;;5102402;28;20445;-67
2021/05/08 07:45:29;;;;;;;4.77;3.97;;;11.80;99.90;;;;;;5109737;28;20484;-68
2021/05/08 07:47:57;;;;;;;4.90;3.80;;;12.10;99.90;;;;;;5109540;28;20524;-67
2021/05/08 07:50:24;;;;;;;4.10;3.70;;;12.20;99.90;;;;;;5109991;28;20449;-68
2021/05/08 07:52:50;;;;;;;4.80;3.23;;;12.30;99.90;;;;;;5110220;28;20462;-69
2021/05/08 07:55:18;;;;;;;4.20;3.30;;;12.40;98.40;;;;;;5110245;28;20465;-68
2021/05/08 07:57:44;;;;;;;5.83;3.80;;;12.40;98.80;;;;;;5109941;28;20564;-67
2021/05/08 08:00:12;;;;;;;3.57;3.20;;;12.60;98.60;;;;;;5109988;28;20545;-68
2021/05/08 08:02:39;;;;;;;3.77;3.03;;;12.60;98.80;;;;;;5109739;28;20915;-70
2021/05/08 08:05:07;;;;;;;4.20;3.53;;;12.70;99.60;;;;;;5109837;28;20551;-67
2021/05/08 08:07:34;;;;;;;3.93;3.30;;;12.80;99.00;;;;;;5106650;28;20469;-68
2021/05/08 08:10:00;;;;;;;3.80;3.00;;;12.80;99.30;;;;;;5105464;28;20453;-69
2021/05/08 08:12:27;;;;;;;4.40;3.17;;;12.90;97.50;;;;;;5113225;28;20453;-68
2021/05/08 08:14:54;;;;;;;5.63;3.43;;;13.00;98.80;;;;;;5112341;28;20544;-69
2021/05/08 08:17:20;;;;;;;3.80;3.40;;;13.10;97.80;;;;;;5103612;28;20561;-69
2021/05/08 08:19:47;;;;;;;3.60;3.30;;;13.10;98.20;;;;;;5109569;28;20827;-68
2021/05/08 08:22:14;;;;;;;4.40;3.13;;;13.00;98.30;;;;;;5110082;28;20481;-66
2021/05/08 08:24:42;;;;;;;4.40;3.50;;;13.10;98.60;;;;;;5113981;28;20544;-67
2021/05/08 08:27:09;;;;;;;4.47;3.60;;;13.30;99.70;;;;;;5115675;27;20443;-67
2021/05/08 08:29:36;;;;;;;4.70;3.90;;;13.40;97.80;;;;;;5112396;28;20475;-68
2021/05/08 08:32:02;;;;;;;4.53;3.00;;;13.40;97.10;;;;;;5107038;28;20453;-71
2021/05/08 08:34:29;;;;;;;3.23;2.80;;;13.50;97.80;;;;;;5097018;28;20508;-69
2021/05/08 08:36:55;;;;;;;4.30;3.50;;;13.60;97.40;;;;;;5108206;28;20525;-70
2021/05/08 08:39:22;;;;;;;4.83;3.80;;;13.70;96.80;;;;;;5102985;28;20456;-69
2021/05/08 08:41:48;;;;;;;3.50;3.10;;;13.70;96.50;;;;;;5114242;27;20472;-69
2021/05/08 08:44:14;;;;;;;5.33;3.30;;;13.90;96.30;;;;;;5113101;27;20457;-70
2021/05/08 08:46:43;;;;;;;5.10;3.50;;;14.20;96.40;;;;;;5111075;28;20521;-69
2021/05/08 08:49:11;;;;;;;4.03;3.20;;;14.50;94.90;;;;;;5109080;27;20454;-70
2021/05/08 08:51:38;;;;;;;4.63;3.10;;;14.80;96.30;;;;;;5111758;28;20455;-69
2021/05/08 08:54:06;;;;;;;5.13;3.23;;;15.00;94.30;;;;;;5111002;28;20870;-68
2021/05/08 08:56:38;;;;;;;3.70;2.83;;;15.20;94.90;;;;;;5110977;28;20512;-69
2021/05/08 08:59:13;;;;;;;7.87;3.20;;;15.50;91.80;;;;;;5107860;28;20528;-67
2021/05/08 09:01:42;;;;;;;4.13;3.10;;;15.50;90.90;;;;;;5106133;28;20453;-70
2021/05/08 09:04:09;;;;;;;4.00;3.00;;;15.50;92.00;;;;;;5112544;27;20553;-67
2021/05/08 09:06:35;;;;;;;4.90;3.10;;;15.90;93.00;;;;;;5110984;28;20880;-67
2021/05/08 09:09:02;;;;;;;6.63;2.90;;;16.50;92.40;;;;;;5112643;27;20480;-68
2021/05/08 09:11:29;;;;;;;4.97;3.57;;;16.90;92.90;;;;;;5114284;28;20444;-69
2021/05/08 09:14:20;;;;;;;4.73;2.87;;;17.00;91.50;;;;;;5113328;28;20465;-69
2021/05/08 09:17:08;;;;;;;4.30;2.90;;;17.10;90.10;;;;;;5114088;27;20571;-68
2021/05/08 09:19:36;;;;;;;3.87;3.10;;;17.50;90.70;;;;;;5110822;28;20437;-68
2021/05/08 09:22:26;;;;;;;4.40;2.90;;;17.70;90.20;;;;;;5111552;28;20524;-69
2021/05/08 09:24:58;;;;;;;5.13;3.37;;;18.10;90.00;;;;;;5111577;28;20544;-69
2021/05/08 09:27:46;;;;;;;3.90;2.23;;;18.20;81.70;;;;;;5111240;28;21047;-69
2021/05/08 09:30:16;;;;;;;3.90;3.00;;;18.10;79.50;;;;;;5111273;28;20540;-69
2021/05/08 09:32:45;;;;;;;3.47;2.40;;;18.00;83.50;;;;;;5111117;28;20990;-69
2021/05/08 09:35:15;;;;;;;2.90;2.60;;;18.00;81.60;;;;;;5110975;28;20497;-69
2021/05/08 09:37:42;;;;;;;3.10;2.40;;;17.90;83.70;;;;;;5111083;27;20513;-69
2021/05/08 09:40:32;;;;;;;4.67;2.33;;;17.70;80.00;;;;;;5110902;28;20917;-69
2021/05/08 09:42:59;;;;;;;3.23;2.80;;;17.90;85.20;;;;;;5110823;27;20442;-68
2021/05/08 09:45:27;;;;;;;3.63;2.83;;;18.40;83.50;;;;;;5110673;28;21264;-69
2021/05/08 09:47:56;;;;;;;6.07;2.73;;;18.80;82.90;;;;;;5110823;28;20520;-68
2021/05/08 09:50:24;;;;;;;3.60;2.17;;;18.90;78.60;;;;;;5110852;28;20465;-67
2021/05/08 09:52:52;;;;;;;3.40;2.60;;;18.70;77.10;;;;;;5110578;28;20531;-67
2021/05/08 09:55:20;;;;;;;3.57;2.43;;;18.20;77.00;;;;;;5110202;27;20449;-67
2021/05/08 09:58:00;;;;;;;5.47;2.30;;;18.10;76.10;;;;;;5110316;28;20483;-67
2021/05/08 10:00:38;;;;;;;4.60;2.50;;;18.40;79.30;;;;;;5110618;28;20524;-68
2021/05/08 10:03:11;;;;;;;4.90;2.67;;;18.60;77.70;;;;;;5110485;28;20465;-68
2021/05/08 10:05:38;;;;;;;3.37;2.20;;;18.90;75.10;;;;;;5110294;28;20437;-68
2021/05/08 10:08:05;;;;;;;4.77;2.40;;;19.10;79.20;;;;;;5110404;28;20498;-68
2021/05/08 10:10:32;;;;;;;5.63;2.80;;;19.30;79.30;;;;;;5110715;28;20495;-68
2021/05/08 10:13:06;;;;;;;3.40;2.53;;;19.50;75.80;;;;;;5111009;28;20526;-68
2021/05/08 10:15:33;;;;;;;3.50;2.63;;;19.70;80.70;;;;;;5110697;28;20445;-69
2021/05/08 10:18:04;;;;;;;3.30;2.40;;;20.30;74.10;;;;;;5110461;28;20549;-67
2021/05/08 10:20:32;;;;;;;3.37;2.50;;;20.60;76.60;;;;;;5110542;28;20452;-69
2021/05/08 10:23:00;;;;;;;3.67;2.30;;;21.30;72.80;;;;;;5110288;28;20441;-69
2021/05/08 10:25:27;;;;;;;5.10;2.70;;;21.70;71.10;;;;;;5110070;28;20549;-68
2021/05/08 10:27:53;;;;;;;3.07;2.40;;;21.70;68.10;;;;;;5110526;28;20445;-67
2021/05/08 10:30:23;;;;;;;7.50;2.20;;;21.90;70.00;;;;;;5109345;28;20821;-69
2021/05/08 10:32:50;;;;;;;3.83;2.47;;;22.00;69.80;;;;;;5108084;28;20524;-69
2021/05/08 10:35:23;;;;;;;3.53;2.13;;;22.30;65.60;;;;;;5109635;28;21102;-69
2021/05/08 10:38:16;;;;;;;3.23;2.10;;;22.50;71.80;;;;;;5106545;28;20487;-69
2021/05/08 10:40:57;;;;;;;3.10;1.90;;;23.30;64.30;;;;;;5108065;28;20442;-69
2021/05/08 10:43:41;;;;;;;3.43;2.30;;;23.50;63.00;;;;;;5110838;27;20480;-68
2021/05/08 10:46:08;;;;;;;3.00;2.13;;;23.40;60.10;;;;;;5103282;28;20454;-69
2021/05/08 10:48:35;;;;;;;3.77;2.10;;;23.70;65.20;;;;;;5109778;28;20840;-68
2021/05/08 10:51:03;;;;;;;3.17;2.30;;;23.90;57.80;;;;;;5109604;28;20453;-69
2021/05/08 10:53:38;;;;;;;3.30;1.90;;;23.80;55.70;;;;;;5110268;28;20545;-69
2021/05/08 10:56:06;;;;;;;3.13;2.30;;;23.40;60.70;;;;;;5109592;28;20437;-69
2021/05/08 10:58:39;;;;;;;3.40;2.70;;;23.00;59.00;;;;;;5110288;28;20528;-68
2021/05/08 11:01:10;;;;;;;4.13;2.10;;;22.50;56.40;;;;;;5110589;28;20489;-69
2021/05/08 11:04:01;;;;;;;5.07;2.90;;;21.90;60.90;;;;;;5110480;28;20527;-69
2021/05/08 11:06:28;;;;;;;3.40;2.27;;;21.40;57.90;;;;;;5110717;28;20527;-68
2021/05/08 11:08:55;;;;;;;4.70;2.80;;;20.80;61.40;;;;;;5110226;28;20541;-69
2021/05/08 11:11:24;;;;;;;3.70;2.20;;;20.60;60.90;;;;;;5110078;28;20540;-68
2021/05/08 11:14:01;;;;;;;3.20;2.00;;;20.40;66.80;;;;;;5108259;28;20569;-69
2021/05/08 11:16:29;;;;;;;2.90;2.17;;;20.60;66.30;;;;;;5109887;28;20477;-69
2021/05/08 11:18:56;;;;;;;2.90;2.10;;;20.70;59.60;;;;;;5108268;28;20529;-69
2021/05/08 11:22:03;;;;;;;2.80;2.20;;;20.80;66.20;;;;;;5109689;28;20529;-68
2021/05/08 11:24:38;;;;;;;3.37;2.00;;;20.90;65.00;;;;;;5109716;28;20461;-68
2021/05/08 11:27:21;;;;;;;3.20;2.07;;;20.70;62.90;;;;;;5102778;28;20624;-69
2021/05/08 11:29:47;;;;;;;3.83;2.13;;;21.00;61.80;;;;;;5109681;28;20470;-68
2021/05/08 11:32:13;;;;;;;2.50;2.00;;;20.90;62.60;;;;;;5109915;28;20437;-69
2021/05/08 11:34:43;;;;;;;2.77;2.17;;;20.90;66.80;;;;;;5109663;28;20488;-69
2021/05/08 11:37:12;;;;;;;3.17;1.70;;;21.00;61.00;;;;;;5109593;28;20476;-67
2021/05/08 11:39:41;;;;;;;2.80;1.60;;;21.30;60.90;;;;;;5109257;28;20924;-69
2021/05/08 11:42:12;;;;;;;3.50;2.20;;;21.50;63.20;;;;;;5101878;27;20442;-68
2021/05/08 11:44:40;;;;;;;3.03;1.90;;;21.50;61.20;;;;;;5110093;28;20935;-68
2021/05/08 11:47:27;;;;;;;2.73;1.90;;;21.40;62.80;;;;;;5112528;28;21141;-68
2021/05/08 11:50:01;;;;;;;2.63;2.13;;;21.60;61.40;;;;;;5112177;28;20582;-67
2021/05/08 11:52:37;;;;;;;2.70;1.87;;;21.90;61.10;;;;;;5111948;28;20493;-67
2021/05/08 11:55:06;;;;;;;2.90;1.87;;;22.10;60.60;;;;;;5109039;28;20501;-68
2021/05/08 11:57:35;;;;;;;5.23;3.37;;;22.40;61.10;;;;;;5111501;28;20507;-68
2021/05/08 12:00:14;;;;;;;2.63;1.90;;;22.50;59.90;;;;;;5112526;28;21092;-68
2021/05/08 12:02:40;;;;;;;2.67;2.10;;;23.00;63.00;;;;;;5112902;27;20461;-69
2021/05/08 12:05:07;;;;;;;3.10;1.90;;;23.20;60.70;;;;;;5112433;28;20467;-68
2021/05/08 12:07:39;;;;;;;3.20;1.80;;;23.50;57.70;;;;;;5112812;28;20448;-68
2021/05/08 12:10:14;;;;;;;2.53;1.80;;;23.90;59.80;;;;;;5112873;28;20509;-68
2021/05/08 12:12:48;;;;;;;4.90;2.40;;;24.50;58.70;;;;;;5112758;28;20452;-68
2021/05/08 12:15:20;;;;;;;5.17;2.00;;;25.20;59.80;;;;;;5112514;28;20972;-68
2021/05/08 12:17:48;;;;;;;2.30;1.63;;;25.60;51.30;;;;;;5112821;28;20527;-68
2021/05/08 12:20:17;;;;;;;2.97;1.97;;;25.60;50.90;;;;;;5112705;28;20437;-68
2021/05/08 12:22:43;;;;;;;4.50;2.03;;;24.50;49.30;;;;;;5117684;27;20444;-68
2021/05/08 12:25:18;;;;;;;2.87;1.70;;;23.70;50.30;;;;;;5111842;28;20469;-68
2021/05/08 12:27:45;;;;;;;2.67;1.60;;;23.20;54.20;;;;;;5109242;28;20466;-67
2021/05/08 12:30:13;;;;;;;3.00;1.90;;;22.10;52.90;;;;;;5113429;28;20623;-67
2021/05/08 12:32:50;;;;;;;2.60;1.73;;;21.00;54.90;;;;;;5120833;28;20815;-69
2021/05/08 12:35:17;;;;;;;3.50;1.70;;;21.70;55.10;;;;;;5111916;28;20461;-69
2021/05/08 12:37:44;;;;;;;4.30;1.80;;;21.50;52.10;;;;;;5112062;28;20477;-68
2021/05/08 12:40:11;;;;;;;2.87;1.70;;;21.70;52.60;;;;;;5112140;27;20489;-68
2021/05/08 12:42:43;;;;;;;2.20;1.50;;;21.30;52.50;;;;;;5111922;28;20528;-68
2021/05/08 12:45:10;;;;;;;2.10;1.50;;;22.30;52.80;;;;;;5111423;28;20469;-68
2021/05/08 12:47:40;;;;;;;2.33;1.50;;;23.00;51.80;;;;;;5111774;28;20537;-68
2021/05/08 12:50:13;;;;;;;2.93;1.80;;;22.40;51.30;;;;;;5111838;28;20462;-68